sensor_id;sensor_type;location;lat;lon;timestamp;P1;durP1;ratioP1;P2;durP2;ratioP2
25079;SDS011;13071;48.868;9.996;2023-01-24T00:01:24;24.30;;;8.25;;
25079;SDS011;13071;48.868;9.996;2023-01-24T00:03:50;15.23;;;6.70;;
25079;SDS011;13071;48.868;9.996;2023-01-24T00:06:17;22.77;;;7.57;;
25079;SDS011;13071;48.868;9.996;2023-01-24T00:08:43;20.02;;;7.13;;
25079;SDS011;13071;48.868;9.996;2023-01-24T00:11:10;21.42;;;7.55;;
25079;SDS011;13071;48.868;9.996;2023-01-24T00:13:38;18.42;;;6.57;;
25079;SDS011;13071;48.868;9.996;2023-01-24T00:16:08;18.92;;;6.88;;
25079;SDS011;13071;48.868;9.996;2023-01-24T00:18:42;17.80;;;6.77;;
25079;SDS011;13071;48.868;9.996;2023-01-24T00:21:09;15.85;;;6.35;;
25079;SDS011;13071;48.868;9.996;2023-01-24T00:23:38;14.65;;;6.57;;
25079;SDS011;13071;48.868;9.996;2023-01-24T00:26:04;19.38;;;6.68;;
25079;SDS011;13071;48.868;9.996;2023-01-24T00:28:31;18.20;;;6.45;;
25079;SDS011;13071;48.868;9.996;2023-01-24T00:30:58;18.23;;;6.95;;
25079;SDS011;13071;48.868;9.996;2023-01-24T00:33:26;19.85;;;7.22;;
25079;SDS011;13071;48.868;9.996;2023-01-24T00:35:53;19.80;;;6.80;;
25079;SDS011;13071;48.868;9.996;2023-01-24T00:38:20;28.77;;;7.50;;
25079;SDS011;13071;48.868;9.996;2023-01-24T00:40:48;20.60;;;7.03;;
25079;SDS011;13071;48.868;9.996;2023-01-24T00:43:14;24.13;;;7.57;;
25079;SDS011;13071;48.868;9.996;2023-01-24T00:45:42;24.58;;;8.57;;
25079;SDS011;13071;48.868;9.996;2023-01-24T00:48:11;22.05;;;8.00;;
25079;SDS011;13071;48.868;9.996;2023-01-24T00:50:39;23.05;;;7.28;;
25079;SDS011;13071;48.868;9.996;2023-01-24T00:53:06;18.80;;;6.95;;
25079;SDS011;13071;48.868;9.996;2023-01-24T00:55:33;19.30;;;6.87;;
25079;SDS011;13071;48.868;9.996;2023-01-24T00:57:59;20.83;;;7.10;;
25079;SDS011;13071;48.868;9.996;2023-01-24T01:00:26;18.97;;;6.40;;
25079;SDS011;13071;48.868;9.996;2023-01-24T01:02:52;20.15;;;7.13;;
25079;SDS011;13071;48.868;9.996;2023-01-24T01:05:19;18.52;;;7.10;;
25079;SDS011;13071;48.868;9.996;2023-01-24T01:07:47;16.88;;;6.38;;
25079;SDS011;13071;48.868;9.996;2023-01-24T01:10:13;19.67;;;6.88;;
25079;SDS011;13071;48.868;9.996;2023-01-24T01:12:40;16.45;;;6.07;;
25079;SDS011;13071;48.868;9.996;2023-01-24T01:15:07;23.53;;;8.53;;
25079;SDS011;13071;48.868;9.996;2023-01-24T01:17:34;21.07;;;7.10;;
25079;SDS011;13071;48.868;9.996;2023-01-24T01:20:00;17.35;;;6.28;;
25079;SDS011;13071;48.868;9.996;2023-01-24T01:22:27;15.50;;;6.45;;
25079;SDS011;13071;48.868;9.996;2023-01-24T01:24:55;22.83;;;7.28;;
25079;SDS011;13071;48.868;9.996;2023-01-24T01:27:21;16.40;;;6.70;;
25079;SDS011;13071;48.868;9.996;2023-01-24T01:29:48;16.77;;;6.53;;
25079;SDS011;13071;48.868;9.996;2023-01-24T01:32:15;18.10;;;7.03;;
25079;SDS011;13071;48.868;9.996;2023-01-24T01:34:41;20.47;;;7.67;;
25079;SDS011;13071;48.868;9.996;2023-01-24T01:37:08;18.10;;;7.27;;
25079;SDS011;13071;48.868;9.996;2023-01-24T01:39:34;21.37;;;6.60;;
25079;SDS011;13071;48.868;9.996;2023-01-24T01:42:02;22.83;;;7.50;;
25079;SDS011;13071;48.868;9.996;2023-01-24T01:44:29;20.70;;;7.65;;
25079;SDS011;13071;48.868;9.996;2023-01-24T01:47:15;21.73;;;7.85;;
25079;SDS011;13071;48.868;9.996;2023-01-24T01:49:45;18.10;;;6.80;;
25079;SDS011;13071;48.868;9.996;2023-01-24T01:52:16;17.77;;;6.60;;
25079;SDS011;13071;48.868;9.996;2023-01-24T01:54:44;22.52;;;7.50;;
25079;SDS011;13071;48.868;9.996;2023-01-24T01:57:16;25.75;;;7.82;;
25079;SDS011;13071;48.868;9.996;2023-01-24T01:59:47;23.38;;;7.72;;
25079;SDS011;13071;48.868;9.996;2023-01-24T02:02:17;17.80;;;6.47;;
25079;SDS011;13071;48.868;9.996;2023-01-24T02:04:46;20.50;;;7.70;;
25079;SDS011;13071;48.868;9.996;2023-01-24T02:07:16;16.92;;;6.43;;
25079;SDS011;13071;48.868;9.996;2023-01-24T02:09:47;25.95;;;7.65;;
25079;SDS011;13071;48.868;9.996;2023-01-24T02:12:19;19.17;;;7.80;;
25079;SDS011;13071;48.868;9.996;2023-01-24T02:14:48;24.60;;;7.53;;
25079;SDS011;13071;48.868;9.996;2023-01-24T02:17:35;17.73;;;6.93;;
25079;SDS011;13071;48.868;9.996;2023-01-24T02:23:02;20.80;;;6.65;;
25079;SDS011;13071;48.868;9.996;2023-01-24T02:25:42;17.83;;;6.82;;
25079;SDS011;13071;48.868;9.996;2023-01-24T02:28:13;17.40;;;6.90;;
25079;SDS011;13071;48.868;9.996;2023-01-24T02:30:41;15.18;;;6.28;;
25079;SDS011;13071;48.868;9.996;2023-01-24T02:33:08;14.87;;;7.00;;
25079;SDS011;13071;48.868;9.996;2023-01-24T02:35:36;20.33;;;7.43;;
25079;SDS011;13071;48.868;9.996;2023-01-24T02:38:03;21.67;;;7.47;;
25079;SDS011;13071;48.868;9.996;2023-01-24T02:40:32;23.48;;;7.20;;
25079;SDS011;13071;48.868;9.996;2023-01-24T02:43:00;21.05;;;7.18;;
25079;SDS011;13071;48.868;9.996;2023-01-24T02:45:31;24.95;;;7.90;;
25079;SDS011;13071;48.868;9.996;2023-01-24T02:48:00;21.77;;;7.13;;
25079;SDS011;13071;48.868;9.996;2023-01-24T02:50:28;21.23;;;7.30;;
25079;SDS011;13071;48.868;9.996;2023-01-24T02:53:17;19.52;;;7.05;;
25079;SDS011;13071;48.868;9.996;2023-01-24T02:55:54;18.33;;;7.07;;
25079;SDS011;13071;48.868;9.996;2023-01-24T02:58:38;20.20;;;7.10;;
25079;SDS011;13071;48.868;9.996;2023-01-24T03:01:06;22.73;;;7.47;;
25079;SDS011;13071;48.868;9.996;2023-01-24T03:03:33;25.75;;;7.50;;
25079;SDS011;13071;48.868;9.996;2023-01-24T03:05:59;24.40;;;8.05;;
25079;SDS011;13071;48.868;9.996;2023-01-24T03:08:26;20.70;;;6.75;;
25079;SDS011;13071;48.868;9.996;2023-01-24T03:10:54;17.50;;;7.13;;
25079;SDS011;13071;48.868;9.996;2023-01-24T03:13:21;17.95;;;6.90;;
25079;SDS011;13071;48.868;9.996;2023-01-24T03:16:06;20.42;;;7.13;;
25079;SDS011;13071;48.868;9.996;2023-01-24T03:18:51;25.40;;;7.25;;
25079;SDS011;13071;48.868;9.996;2023-01-24T03:21:35;23.52;;;8.05;;
25079;SDS011;13071;48.868;9.996;2023-01-24T03:24:20;23.02;;;7.35;;
25079;SDS011;13071;48.868;9.996;2023-01-24T03:27:05;17.27;;;5.90;;
25079;SDS011;13071;48.868;9.996;2023-01-24T03:29:49;19.70;;;6.40;;
25079;SDS011;13071;48.868;9.996;2023-01-24T03:32:34;25.43;;;7.47;;
25079;SDS011;13071;48.868;9.996;2023-01-24T03:35:19;24.00;;;7.55;;
25079;SDS011;13071;48.868;9.996;2023-01-24T03:37:45;28.13;;;8.63;;
25079;SDS011;13071;48.868;9.996;2023-01-24T03:40:29;22.13;;;7.20;;
25079;SDS011;13071;48.868;9.996;2023-01-24T03:42:56;24.15;;;8.20;;
25079;SDS011;13071;48.868;9.996;2023-01-24T03:45:25;21.77;;;6.87;;
25079;SDS011;13071;48.868;9.996;2023-01-24T03:47:55;20.40;;;8.23;;
25079;SDS011;13071;48.868;9.996;2023-01-24T03:50:24;21.63;;;7.33;;
25079;SDS011;13071;48.868;9.996;2023-01-24T03:53:09;20.43;;;7.70;;
25079;SDS011;13071;48.868;9.996;2023-01-24T03:55:37;22.02;;;7.20;;
25079;SDS011;13071;48.868;9.996;2023-01-24T03:58:04;22.17;;;7.35;;
25079;SDS011;13071;48.868;9.996;2023-01-24T04:00:32;22.15;;;7.03;;
25079;SDS011;13071;48.868;9.996;2023-01-24T04:03:00;18.97;;;7.53;;
25079;SDS011;13071;48.868;9.996;2023-01-24T04:05:27;22.55;;;7.43;;
25079;SDS011;13071;48.868;9.996;2023-01-24T04:07:54;20.77;;;7.10;;
25079;SDS011;13071;48.868;9.996;2023-01-24T04:10:22;22.23;;;7.27;;
25079;SDS011;13071;48.868;9.996;2023-01-24T04:12:49;20.00;;;7.63;;
25079;SDS011;13071;48.868;9.996;2023-01-24T04:15:16;21.70;;;6.63;;
25079;SDS011;13071;48.868;9.996;2023-01-24T04:17:44;17.13;;;6.77;;
25079;SDS011;13071;48.868;9.996;2023-01-24T04:20:12;24.63;;;8.20;;
25079;SDS011;13071;48.868;9.996;2023-01-24T04:22:40;24.83;;;7.43;;
25079;SDS011;13071;48.868;9.996;2023-01-24T04:25:07;19.13;;;7.80;;
25079;SDS011;13071;48.868;9.996;2023-01-24T04:27:34;24.40;;;7.63;;
25079;SDS011;13071;48.868;9.996;2023-01-24T04:30:02;19.93;;;6.83;;
25079;SDS011;13071;48.868;9.996;2023-01-24T04:32:29;23.00;;;7.40;;
25079;SDS011;13071;48.868;9.996;2023-01-24T04:34:55;21.43;;;7.43;;
25079;SDS011;13071;48.868;9.996;2023-01-24T04:37:23;23.00;;;8.50;;
25079;SDS011;13071;48.868;9.996;2023-01-24T04:39:50;21.43;;;7.23;;
25079;SDS011;13071;48.868;9.996;2023-01-24T04:42:17;24.05;;;7.72;;
25079;SDS011;13071;48.868;9.996;2023-01-24T04:44:43;25.20;;;7.65;;
25079;SDS011;13071;48.868;9.996;2023-01-24T04:47:10;23.48;;;7.55;;
25079;SDS011;13071;48.868;9.996;2023-01-24T04:49:36;19.17;;;8.15;;
25079;SDS011;13071;48.868;9.996;2023-01-24T04:52:03;20.30;;;7.57;;
25079;SDS011;13071;48.868;9.996;2023-01-24T04:54:31;18.13;;;6.77;;
25079;SDS011;13071;48.868;9.996;2023-01-24T04:56:58;19.30;;;7.00;;
25079;SDS011;13071;48.868;9.996;2023-01-24T04:59:24;23.08;;;7.47;;
25079;SDS011;13071;48.868;9.996;2023-01-24T05:01:51;20.20;;;7.20;;
25079;SDS011;13071;48.868;9.996;2023-01-24T05:04:17;19.35;;;7.18;;
25079;SDS011;13071;48.868;9.996;2023-01-24T05:06:44;23.70;;;7.43;;
25079;SDS011;13071;48.868;9.996;2023-01-24T05:09:11;21.65;;;6.70;;
25079;SDS011;13071;48.868;9.996;2023-01-24T05:11:38;18.63;;;6.32;;
25079;SDS011;13071;48.868;9.996;2023-01-24T05:14:07;16.65;;;6.72;;
25079;SDS011;13071;48.868;9.996;2023-01-24T05:16:34;18.80;;;6.70;;
25079;SDS011;13071;48.868;9.996;2023-01-24T05:19:01;19.27;;;6.25;;
25079;SDS011;13071;48.868;9.996;2023-01-24T05:21:28;23.90;;;7.70;;
25079;SDS011;13071;48.868;9.996;2023-01-24T05:23:54;21.65;;;7.50;;
25079;SDS011;13071;48.868;9.996;2023-01-24T05:26:21;24.83;;;6.80;;
25079;SDS011;13071;48.868;9.996;2023-01-24T05:28:51;19.97;;;7.37;;
25079;SDS011;13071;48.868;9.996;2023-01-24T05:31:18;15.45;;;6.50;;
25079;SDS011;13071;48.868;9.996;2023-01-24T05:33:45;15.80;;;5.90;;
25079;SDS011;13071;48.868;9.996;2023-01-24T05:36:12;21.37;;;7.57;;
25079;SDS011;13071;48.868;9.996;2023-01-24T05:38:40;20.20;;;6.88;;
25079;SDS011;13071;48.868;9.996;2023-01-24T05:41:07;16.85;;;6.03;;
25079;SDS011;13071;48.868;9.996;2023-01-24T05:43:36;17.73;;;6.57;;
25079;SDS011;13071;48.868;9.996;2023-01-24T05:46:04;16.45;;;6.78;;
25079;SDS011;13071;48.868;9.996;2023-01-24T05:48:33;19.83;;;7.13;;
25079;SDS011;13071;48.868;9.996;2023-01-24T05:51:00;19.90;;;6.65;;
25079;SDS011;13071;48.868;9.996;2023-01-24T05:53:29;16.70;;;6.23;;
25079;SDS011;13071;48.868;9.996;2023-01-24T05:55:56;20.88;;;7.05;;
25079;SDS011;13071;48.868;9.996;2023-01-24T05:58:24;12.90;;;6.07;;
25079;SDS011;13071;48.868;9.996;2023-01-24T06:00:51;16.80;;;7.00;;
25079;SDS011;13071;48.868;9.996;2023-01-24T06:03:19;19.13;;;6.20;;
25079;SDS011;13071;48.868;9.996;2023-01-24T06:05:46;14.33;;;5.30;;
25079;SDS011;13071;48.868;9.996;2023-01-24T06:08:14;19.33;;;6.22;;
25079;SDS011;13071;48.868;9.996;2023-01-24T06:10:41;17.77;;;7.00;;
25079;SDS011;13071;48.868;9.996;2023-01-24T06:13:09;20.48;;;7.22;;
25079;SDS011;13071;48.868;9.996;2023-01-24T06:15:36;22.95;;;6.45;;
25079;SDS011;13071;48.868;9.996;2023-01-24T06:18:03;16.63;;;6.40;;
25079;SDS011;13071;48.868;9.996;2023-01-24T06:20:32;18.13;;;6.43;;
25079;SDS011;13071;48.868;9.996;2023-01-24T06:23:01;17.35;;;6.10;;
25079;SDS011;13071;48.868;9.996;2023-01-24T06:25:29;17.60;;;6.77;;
25079;SDS011;13071;48.868;9.996;2023-01-24T06:27:57;22.08;;;7.57;;
25079;SDS011;13071;48.868;9.996;2023-01-24T06:30:24;19.70;;;6.75;;
25079;SDS011;13071;48.868;9.996;2023-01-24T06:33:01;16.35;;;6.25;;
25079;SDS011;13071;48.868;9.996;2023-01-24T06:35:42;17.98;;;6.32;;
25079;SDS011;13071;48.868;9.996;2023-01-24T06:38:22;17.47;;;6.87;;
25079;SDS011;13071;48.868;9.996;2023-01-24T06:40:51;15.88;;;6.30;;
25079;SDS011;13071;48.868;9.996;2023-01-24T06:43:21;16.83;;;5.97;;
25079;SDS011;13071;48.868;9.996;2023-01-24T06:45:48;23.75;;;7.18;;
25079;SDS011;13071;48.868;9.996;2023-01-24T06:48:15;19.10;;;7.07;;
25079;SDS011;13071;48.868;9.996;2023-01-24T06:50:43;18.23;;;6.53;;
25079;SDS011;13071;48.868;9.996;2023-01-24T06:53:10;15.57;;;6.53;;
25079;SDS011;13071;48.868;9.996;2023-01-24T06:55:37;18.58;;;6.35;;
25079;SDS011;13071;48.868;9.996;2023-01-24T06:58:04;19.30;;;6.53;;
25079;SDS011;13071;48.868;9.996;2023-01-24T07:00:30;17.83;;;6.43;;
25079;SDS011;13071;48.868;9.996;2023-01-24T07:02:57;18.73;;;6.80;;
25079;SDS011;13071;48.868;9.996;2023-01-24T07:05:25;22.60;;;6.67;;
25079;SDS011;13071;48.868;9.996;2023-01-24T07:07:53;20.75;;;6.72;;
25079;SDS011;13071;48.868;9.996;2023-01-24T07:10:19;20.48;;;7.13;;
25079;SDS011;13071;48.868;9.996;2023-01-24T07:12:46;19.35;;;7.00;;
25079;SDS011;13071;48.868;9.996;2023-01-24T07:15:13;19.65;;;6.10;;
25079;SDS011;13071;48.868;9.996;2023-01-24T07:17:40;15.00;;;6.30;;
25079;SDS011;13071;48.868;9.996;2023-01-24T07:20:07;20.63;;;6.70;;
25079;SDS011;13071;48.868;9.996;2023-01-24T07:22:36;15.68;;;6.10;;
25079;SDS011;13071;48.868;9.996;2023-01-24T07:25:08;18.10;;;6.13;;
25079;SDS011;13071;48.868;9.996;2023-01-24T07:27:38;16.75;;;6.38;;
25079;SDS011;13071;48.868;9.996;2023-01-24T07:30:06;19.30;;;6.13;;
25079;SDS011;13071;48.868;9.996;2023-01-24T07:32:33;17.83;;;6.28;;
25079;SDS011;13071;48.868;9.996;2023-01-24T07:35:00;18.55;;;6.70;;
25079;SDS011;13071;48.868;9.996;2023-01-24T07:37:26;12.88;;;5.72;;
25079;SDS011;13071;48.868;9.996;2023-01-24T07:39:53;17.02;;;6.03;;
25079;SDS011;13071;48.868;9.996;2023-01-24T07:42:21;19.98;;;7.40;;
25079;SDS011;13071;48.868;9.996;2023-01-24T07:44:47;20.30;;;6.68;;
25079;SDS011;13071;48.868;9.996;2023-01-24T07:47:14;15.63;;;6.15;;
25079;SDS011;13071;48.868;9.996;2023-01-24T07:49:41;17.80;;;6.15;;
25079;SDS011;13071;48.868;9.996;2023-01-24T07:52:07;17.17;;;6.38;;
25079;SDS011;13071;48.868;9.996;2023-01-24T07:54:34;20.35;;;6.28;;
25079;SDS011;13071;48.868;9.996;2023-01-24T07:57:00;13.07;;;5.97;;
25079;SDS011;13071;48.868;9.996;2023-01-24T07:59:28;19.30;;;6.30;;
25079;SDS011;13071;48.868;9.996;2023-01-24T08:01:55;15.13;;;6.07;;
25079;SDS011;13071;48.868;9.996;2023-01-24T08:04:21;17.52;;;5.95;;
25079;SDS011;13071;48.868;9.996;2023-01-24T08:06:48;18.75;;;6.03;;
25079;SDS011;13071;48.868;9.996;2023-01-24T08:09:28;17.83;;;6.53;;
25079;SDS011;13071;48.868;9.996;2023-01-24T08:11:55;15.30;;;6.00;;
25079;SDS011;13071;48.868;9.996;2023-01-24T08:14:22;20.80;;;6.70;;
25079;SDS011;13071;48.868;9.996;2023-01-24T08:16:50;18.23;;;6.32;;
25079;SDS011;13071;48.868;9.996;2023-01-24T08:19:16;15.40;;;5.47;;
25079;SDS011;13071;48.868;9.996;2023-01-24T08:21:43;21.20;;;6.25;;
25079;SDS011;13071;48.868;9.996;2023-01-24T08:24:09;14.43;;;5.85;;
25079;SDS011;13071;48.868;9.996;2023-01-24T08:26:37;20.40;;;5.68;;
25079;SDS011;13071;48.868;9.996;2023-01-24T08:29:03;18.83;;;6.00;;
25079;SDS011;13071;48.868;9.996;2023-01-24T08:31:30;15.70;;;6.23;;
25079;SDS011;13071;48.868;9.996;2023-01-24T08:33:58;14.90;;;5.97;;
25079;SDS011;13071;48.868;9.996;2023-01-24T08:36:25;19.37;;;6.20;;
25079;SDS011;13071;48.868;9.996;2023-01-24T08:38:51;13.20;;;5.18;;
25079;SDS011;13071;48.868;9.996;2023-01-24T08:41:18;15.80;;;5.97;;
25079;SDS011;13071;48.868;9.996;2023-01-24T08:43:44;13.30;;;6.13;;
25079;SDS011;13071;48.868;9.996;2023-01-24T08:46:11;18.10;;;6.40;;
25079;SDS011;13071;48.868;9.996;2023-01-24T08:48:37;19.65;;;6.15;;
25079;SDS011;13071;48.868;9.996;2023-01-24T08:51:05;17.75;;;6.10;;
25079;SDS011;13071;48.868;9.996;2023-01-24T08:53:32;21.20;;;7.03;;
25079;SDS011;13071;48.868;9.996;2023-01-24T08:55:59;17.13;;;6.13;;
25079;SDS011;13071;48.868;9.996;2023-01-24T08:58:26;16.73;;;5.50;;
25079;SDS011;13071;48.868;9.996;2023-01-24T09:00:52;13.32;;;5.60;;
25079;SDS011;13071;48.868;9.996;2023-01-24T09:03:19;17.30;;;7.03;;
25079;SDS011;13071;48.868;9.996;2023-01-24T09:05:45;13.93;;;5.70;;
25079;SDS011;13071;48.868;9.996;2023-01-24T09:08:13;15.60;;;5.43;;
25079;SDS011;13071;48.868;9.996;2023-01-24T09:10:40;17.00;;;6.20;;
25079;SDS011;13071;48.868;9.996;2023-01-24T09:13:07;14.95;;;5.95;;
25079;SDS011;13071;48.868;9.996;2023-01-24T09:15:33;13.68;;;5.88;;
25079;SDS011;13071;48.868;9.996;2023-01-24T09:18:00;13.02;;;5.47;;
25079;SDS011;13071;48.868;9.996;2023-01-24T09:20:27;19.92;;;5.88;;
25079;SDS011;13071;48.868;9.996;2023-01-24T09:22:53;12.48;;;5.65;;
25079;SDS011;13071;48.868;9.996;2023-01-24T09:25:21;18.93;;;6.77;;
25079;SDS011;13071;48.868;9.996;2023-01-24T09:27:52;16.73;;;6.70;;
25079;SDS011;13071;48.868;9.996;2023-01-24T09:30:18;14.90;;;5.32;;
25079;SDS011;13071;48.868;9.996;2023-01-24T09:32:45;19.65;;;5.97;;
25079;SDS011;13071;48.868;9.996;2023-01-24T09:35:12;16.37;;;5.53;;
25079;SDS011;13071;48.868;9.996;2023-01-24T09:37:38;14.53;;;6.10;;
25079;SDS011;13071;48.868;9.996;2023-01-24T09:40:08;15.87;;;6.00;;
25079;SDS011;13071;48.868;9.996;2023-01-24T09:42:47;12.60;;;5.63;;
25079;SDS011;13071;48.868;9.996;2023-01-24T09:45:24;15.30;;;6.55;;
25079;SDS011;13071;48.868;9.996;2023-01-24T09:47:57;16.17;;;5.37;;
25079;SDS011;13071;48.868;9.996;2023-01-24T09:50:27;17.45;;;5.95;;
25079;SDS011;13071;48.868;9.996;2023-01-24T09:52:59;16.87;;;5.50;;
25079;SDS011;13071;48.868;9.996;2023-01-24T09:55:27;14.68;;;5.90;;
25079;SDS011;13071;48.868;9.996;2023-01-24T09:58:00;16.50;;;6.00;;
25079;SDS011;13071;48.868;9.996;2023-01-24T10:00:32;17.35;;;5.68;;
25079;SDS011;13071;48.868;9.996;2023-01-24T10:03:01;13.73;;;5.53;;
25079;SDS011;13071;48.868;9.996;2023-01-24T10:05:32;17.10;;;5.97;;
25079;SDS011;13071;48.868;9.996;2023-01-24T10:08:11;15.43;;;6.40;;
25079;SDS011;13071;48.868;9.996;2023-01-24T10:10:47;12.18;;;5.40;;
25079;SDS011;13071;48.868;9.996;2023-01-24T10:13:29;13.75;;;5.15;;
25079;SDS011;13071;48.868;9.996;2023-01-24T10:16:18;14.77;;;4.47;;
25079;SDS011;13071;48.868;9.996;2023-01-24T10:19:06;10.85;;;5.07;;
25079;SDS011;13071;48.868;9.996;2023-01-24T10:21:49;14.68;;;5.38;;
25079;SDS011;13071;48.868;9.996;2023-01-24T10:24:33;13.55;;;5.78;;
25079;SDS011;13071;48.868;9.996;2023-01-24T10:27:01;17.17;;;5.95;;
25079;SDS011;13071;48.868;9.996;2023-01-24T10:29:41;13.13;;;5.00;;
25079;SDS011;13071;48.868;9.996;2023-01-24T10:32:11;17.73;;;6.33;;
25079;SDS011;13071;48.868;9.996;2023-01-24T10:34:41;13.60;;;5.35;;
25079;SDS011;13071;48.868;9.996;2023-01-24T10:37:13;16.10;;;6.03;;
25079;SDS011;13071;48.868;9.996;2023-01-24T10:39:45;12.27;;;5.37;;
25079;SDS011;13071;48.868;9.996;2023-01-24T10:42:14;10.35;;;5.18;;
25079;SDS011;13071;48.868;9.996;2023-01-24T10:44:49;13.25;;;5.07;;
25079;SDS011;13071;48.868;9.996;2023-01-24T10:50:07;12.48;;;5.15;;
25079;SDS011;13071;48.868;9.996;2023-01-24T10:52:35;13.60;;;6.53;;
25079;SDS011;13071;48.868;9.996;2023-01-24T10:55:02;12.73;;;5.07;;
25079;SDS011;13071;48.868;9.996;2023-01-24T10:57:47;12.05;;;5.25;;
25079;SDS011;13071;48.868;9.996;2023-01-24T11:00:18;18.00;;;5.50;;
25079;SDS011;13071;48.868;9.996;2023-01-24T11:02:52;13.10;;;5.03;;
25079;SDS011;13071;48.868;9.996;2023-01-24T11:05:20;14.10;;;5.50;;
25079;SDS011;13071;48.868;9.996;2023-01-24T11:07:48;12.23;;;5.32;;
25079;SDS011;13071;48.868;9.996;2023-01-24T11:10:19;15.18;;;5.93;;
25079;SDS011;13071;48.868;9.996;2023-01-24T11:12:48;10.48;;;5.32;;
25079;SDS011;13071;48.868;9.996;2023-01-24T11:15:19;10.07;;;4.72;;
25079;SDS011;13071;48.868;9.996;2023-01-24T11:17:51;12.30;;;5.38;;
25079;SDS011;13071;48.868;9.996;2023-01-24T11:20:22;12.30;;;4.93;;
25079;SDS011;13071;48.868;9.996;2023-01-24T11:23:00;15.00;;;6.03;;
25079;SDS011;13071;48.868;9.996;2023-01-24T11:25:29;8.50;;;4.20;;
25079;SDS011;13071;48.868;9.996;2023-01-24T11:27:55;13.73;;;5.30;;
25079;SDS011;13071;48.868;9.996;2023-01-24T11:30:25;13.52;;;5.40;;
25079;SDS011;13071;48.868;9.996;2023-01-24T11:32:58;11.00;;;4.53;;
25079;SDS011;13071;48.868;9.996;2023-01-24T11:35:36;12.73;;;5.05;;
25079;SDS011;13071;48.868;9.996;2023-01-24T11:38:16;11.77;;;4.85;;
25079;SDS011;13071;48.868;9.996;2023-01-24T11:40:54;13.13;;;5.05;;
25079;SDS011;13071;48.868;9.996;2023-01-24T11:43:32;16.88;;;5.57;;
25079;SDS011;13071;48.868;9.996;2023-01-24T11:46:15;15.48;;;5.43;;
25079;SDS011;13071;48.868;9.996;2023-01-24T11:48:49;13.65;;;5.47;;
25079;SDS011;13071;48.868;9.996;2023-01-24T11:51:21;14.25;;;5.82;;
25079;SDS011;13071;48.868;9.996;2023-01-24T11:54:04;12.63;;;5.93;;
25079;SDS011;13071;48.868;9.996;2023-01-24T11:56:44;12.07;;;5.38;;
25079;SDS011;13071;48.868;9.996;2023-01-24T11:59:19;14.02;;;5.13;;
25079;SDS011;13071;48.868;9.996;2023-01-24T12:02:06;10.10;;;5.50;;
25079;SDS011;13071;48.868;9.996;2023-01-24T12:04:53;14.10;;;4.22;;
25079;SDS011;13071;48.868;9.996;2023-01-24T12:07:31;14.98;;;5.90;;
25079;SDS011;13071;48.868;9.996;2023-01-24T12:10:15;15.00;;;6.05;;
25079;SDS011;13071;48.868;9.996;2023-01-24T12:12:49;14.02;;;5.43;;
25079;SDS011;13071;48.868;9.996;2023-01-24T12:15:24;12.50;;;5.22;;
25079;SDS011;13071;48.868;9.996;2023-01-24T12:18:11;12.70;;;4.78;;
25079;SDS011;13071;48.868;9.996;2023-01-24T12:20:55;10.82;;;4.75;;
25079;SDS011;13071;48.868;9.996;2023-01-24T12:23:24;11.45;;;5.10;;
25079;SDS011;13071;48.868;9.996;2023-01-24T12:25:55;11.15;;;5.00;;
25079;SDS011;13071;48.868;9.996;2023-01-24T12:28:27;13.07;;;5.55;;
25079;SDS011;13071;48.868;9.996;2023-01-24T12:31:00;9.68;;;4.82;;
25079;SDS011;13071;48.868;9.996;2023-01-24T12:33:32;10.68;;;4.78;;
25079;SDS011;13071;48.868;9.996;2023-01-24T12:36:03;12.10;;;5.47;;
25079;SDS011;13071;48.868;9.996;2023-01-24T12:38:38;13.40;;;5.47;;
25079;SDS011;13071;48.868;9.996;2023-01-24T12:41:11;13.25;;;4.93;;
25079;SDS011;13071;48.868;9.996;2023-01-24T12:43:47;13.82;;;5.30;;
25079;SDS011;13071;48.868;9.996;2023-01-24T12:46:22;14.27;;;4.82;;
25079;SDS011;13071;48.868;9.996;2023-01-24T12:48:58;12.82;;;5.07;;
25079;SDS011;13071;48.868;9.996;2023-01-24T12:51:35;13.63;;;5.63;;
25079;SDS011;13071;48.868;9.996;2023-01-24T12:54:09;14.23;;;5.40;;
25079;SDS011;13071;48.868;9.996;2023-01-24T12:56:42;12.57;;;5.50;;
25079;SDS011;13071;48.868;9.996;2023-01-24T12:59:13;11.10;;;4.63;;
25079;SDS011;13071;48.868;9.996;2023-01-24T13:04:48;14.38;;;5.10;;
25079;SDS011;13071;48.868;9.996;2023-01-24T13:07:23;15.88;;;6.05;;
25079;SDS011;13071;48.868;9.996;2023-01-24T13:10:00;13.95;;;4.95;;
25079;SDS011;13071;48.868;9.996;2023-01-24T13:12:35;11.73;;;5.25;;
25079;SDS011;13071;48.868;9.996;2023-01-24T13:15:02;16.45;;;5.57;;
25079;SDS011;13071;48.868;9.996;2023-01-24T13:17:35;19.33;;;5.75;;
25079;SDS011;13071;48.868;9.996;2023-01-24T13:20:20;13.98;;;5.55;;
25079;SDS011;13071;48.868;9.996;2023-01-24T13:23:02;16.13;;;6.07;;
25079;SDS011;13071;48.868;9.996;2023-01-24T13:25:44;17.02;;;5.70;;
25079;SDS011;13071;48.868;9.996;2023-01-24T13:28:26;11.10;;;4.78;;
25079;SDS011;13071;48.868;9.996;2023-01-24T13:31:04;13.85;;;4.95;;
25079;SDS011;13071;48.868;9.996;2023-01-24T13:33:40;13.27;;;5.13;;
25079;SDS011;13071;48.868;9.996;2023-01-24T13:36:13;16.48;;;5.80;;
25079;SDS011;13071;48.868;9.996;2023-01-24T13:38:44;15.37;;;6.00;;
25079;SDS011;13071;48.868;9.996;2023-01-24T13:41:15;12.73;;;5.00;;
25079;SDS011;13071;48.868;9.996;2023-01-24T13:43:58;16.27;;;6.32;;
25079;SDS011;13071;48.868;9.996;2023-01-24T13:49:33;11.85;;;4.97;;
25079;SDS011;13071;48.868;9.996;2023-01-24T13:55:03;14.88;;;5.22;;
25079;SDS011;13071;48.868;9.996;2023-01-24T13:57:31;14.85;;;5.13;;
25079;SDS011;13071;48.868;9.996;2023-01-24T14:00:14;13.30;;;5.38;;
25079;SDS011;13071;48.868;9.996;2023-01-24T14:03:00;12.70;;;5.28;;
25079;SDS011;13071;48.868;9.996;2023-01-24T14:05:33;16.23;;;5.25;;
25079;SDS011;13071;48.868;9.996;2023-01-24T14:08:13;12.00;;;5.88;;
25079;SDS011;13071;48.868;9.996;2023-01-24T14:10:43;12.75;;;6.00;;
25079;SDS011;13071;48.868;9.996;2023-01-24T14:16:09;9.88;;;5.03;;
25079;SDS011;13071;48.868;9.996;2023-01-24T14:18:41;12.38;;;5.90;;
25079;SDS011;13071;48.868;9.996;2023-01-24T14:21:12;13.93;;;5.85;;
25079;SDS011;13071;48.868;9.996;2023-01-24T14:23:41;17.85;;;6.18;;
25079;SDS011;13071;48.868;9.996;2023-01-24T14:26:12;14.55;;;5.63;;
25079;SDS011;13071;48.868;9.996;2023-01-24T14:28:42;14.40;;;5.78;;
25079;SDS011;13071;48.868;9.996;2023-01-24T14:31:14;14.88;;;6.53;;
25079;SDS011;13071;48.868;9.996;2023-01-24T14:33:46;17.92;;;5.88;;
25079;SDS011;13071;48.868;9.996;2023-01-24T14:36:22;11.88;;;5.40;;
25079;SDS011;13071;48.868;9.996;2023-01-24T14:39:15;19.02;;;5.70;;
25079;SDS011;13071;48.868;9.996;2023-01-24T14:41:45;13.20;;;4.63;;
25079;SDS011;13071;48.868;9.996;2023-01-24T14:44:17;16.33;;;5.88;;
25079;SDS011;13071;48.868;9.996;2023-01-24T14:46:54;13.15;;;5.68;;
25079;SDS011;13071;48.868;9.996;2023-01-24T14:49:27;14.40;;;6.25;;
25079;SDS011;13071;48.868;9.996;2023-01-24T14:51:58;16.77;;;5.93;;
25079;SDS011;13071;48.868;9.996;2023-01-24T14:54:26;14.25;;;5.82;;
25079;SDS011;13071;48.868;9.996;2023-01-24T14:56:53;17.20;;;6.07;;
25079;SDS011;13071;48.868;9.996;2023-01-24T14:59:20;15.68;;;6.57;;
25079;SDS011;13071;48.868;9.996;2023-01-24T15:01:49;14.43;;;6.30;;
25079;SDS011;13071;48.868;9.996;2023-01-24T15:04:21;18.10;;;6.10;;
25079;SDS011;13071;48.868;9.996;2023-01-24T15:07:02;14.40;;;6.00;;
25079;SDS011;13071;48.868;9.996;2023-01-24T15:09:31;14.73;;;6.20;;
25079;SDS011;13071;48.868;9.996;2023-01-24T15:12:09;16.20;;;6.18;;
25079;SDS011;13071;48.868;9.996;2023-01-24T15:14:38;17.50;;;6.15;;